createdAt,value
2023-01-26T00:04:15.866Z,16.04
2023-01-26T00:09:17.696Z,16.04
2023-01-26T00:14:20.054Z,16.18
2023-01-26T00:19:22.095Z,16.11
2023-01-26T00:24:24.107Z,16.12
2023-01-26T00:29:26.025Z,16.09
2023-01-26T00:34:27.950Z,16.15
2023-01-26T00:39:29.980Z,16.19
2023-01-26T00:44:31.776Z,16.18
2023-01-26T00:49:34.342Z,15.96
2023-01-26T00:54:36.320Z,16.05
2023-01-26T00:59:38.233Z,16.16
2023-01-26T01:04:40.174Z,16.14
2023-01-26T01:09:42.066Z,16.23
2023-01-26T01:14:43.955Z,16.26
2023-01-26T01:19:45.859Z,16.19
2023-01-26T01:24:47.886Z,16.28
2023-01-26T01:29:53.248Z,16.31
2023-01-26T01:34:55.309Z,15.92
2023-01-26T01:39:57.182Z,16.04
2023-01-26T01:45:27.007Z,15.99
2023-01-26T01:50:32.386Z,16.04
2023-01-26T01:55:35.572Z,16.14
2023-01-26T02:00:37.388Z,16.18
2023-01-26T02:06:05.412Z,16.25
2023-01-26T02:11:15.047Z,16.25
2023-01-26T02:16:18.560Z,16.24
2023-01-26T02:21:22.707Z,16.32
2023-01-26T02:26:29.521Z,16.20
2023-01-26T02:31:32.360Z,16.22
2023-01-26T02:36:34.691Z,16.21
2023-01-26T02:41:55.164Z,16.23
2023-01-26T02:46:57.107Z,16.16
2023-01-26T02:51:59.007Z,16.23
2023-01-26T02:57:00.874Z,16.26
2023-01-26T03:02:03.735Z,16.20
2023-01-26T03:07:05.742Z,16.23
2023-01-26T03:12:07.651Z,16.11
2023-01-26T03:17:09.539Z,16.12
2023-01-26T03:22:30.164Z,16.08
2023-01-26T03:27:40.886Z,16.12
2023-01-26T03:32:43.120Z,16.24
2023-01-26T03:37:45.219Z,16.17
2023-01-26T03:43:05.638Z,16.16
2023-01-26T03:48:28.322Z,16.19
2023-01-26T03:53:48.828Z,16.20
2023-01-26T03:58:53.912Z,16.12
2023-01-26T04:04:15.998Z,16.09
2023-01-26T04:09:18.120Z,16.15
2023-01-26T04:14:49.739Z,16.15
2023-01-26T04:20:11.430Z,16.18
2023-01-26T04:25:17.514Z,16.14
2023-01-26T04:30:20.072Z,16.17
2023-01-26T04:35:22.061Z,16.14
2023-01-26T04:40:23.861Z,16.17
2023-01-26T04:45:25.846Z,16.13
2023-01-26T04:50:28.136Z,16.15
2023-01-26T04:55:30.169Z,16.16
2023-01-26T05:00:32.242Z,16.16
2023-01-26T05:05:37.981Z,16.22
2023-01-26T05:10:39.920Z,16.17
2023-01-26T05:15:42.004Z,16.08
2023-01-26T05:20:44.120Z,16.14
2023-01-26T05:25:46.107Z,16.14
2023-01-26T05:30:48.379Z,16.13
2023-01-26T05:35:51.265Z,16.17
2023-01-26T05:40:53.277Z,16.20
2023-01-26T05:45:55.151Z,16.15
2023-01-26T05:50:58.421Z,16.14
2023-01-26T05:56:00.247Z,16.15
2023-01-26T06:01:05.044Z,16.18
2023-01-26T06:06:07.142Z,16.12
2023-01-26T06:11:09.096Z,16.13
2023-01-26T06:16:11.071Z,16.11
2023-01-26T06:21:12.946Z,16.11
2023-01-26T06:26:15.876Z,16.10
2023-01-26T06:31:17.914Z,16.16
2023-01-26T06:36:19.842Z,16.15
2023-01-26T06:41:21.588Z,16.16
2023-01-26T06:46:23.629Z,16.18
2023-01-26T06:51:32.100Z,16.13
2023-01-26T06:56:34.317Z,16.15
2023-01-26T07:01:39.864Z,16.20
2023-01-26T07:06:41.812Z,16.12
2023-01-26T07:11:43.668Z,16.17
2023-01-26T07:16:45.545Z,16.14
2023-01-26T07:21:49.066Z,16.13
2023-01-26T07:26:51.181Z,16.14
2023-01-26T07:31:53.009Z,16.09
2023-01-26T07:36:54.954Z,16.19
2023-01-26T07:41:56.948Z,16.13
2023-01-26T07:46:59.158Z,16.15
2023-01-26T07:52:03.166Z,16.15
2023-01-26T07:57:09.266Z,16.14
2023-01-26T08:02:11.456Z,16.15
2023-01-26T08:07:13.381Z,16.16
2023-01-26T08:12:15.552Z,16.18
2023-01-26T08:17:18.439Z,16.17
2023-01-26T08:22:20.492Z,16.12
2023-01-26T08:27:23.428Z,16.19
2023-01-26T08:32:25.700Z,16.20
2023-01-26T08:37:27.797Z,16.17
2023-01-26T08:42:29.777Z,16.20
2023-01-26T08:47:31.543Z,16.20
2023-01-26T08:52:33.495Z,16.14
2023-01-26T08:57:35.593Z,16.08
2023-01-26T09:02:37.834Z,16.16
2023-01-26T09:07:39.880Z,16.29
2023-01-26T09:12:41.769Z,16.22
2023-01-26T09:17:43.838Z,16.17
2023-01-26T09:22:46.531Z,16.18
2023-01-26T09:27:48.389Z,16.17
2023-01-26T09:32:50.288Z,16.19
2023-01-26T09:37:52.338Z,16.06
2023-01-26T09:43:05.508Z,16.08
2023-01-26T09:48:25.183Z,15.62
2023-01-26T09:53:41.991Z,15.76
2023-01-26T09:58:47.611Z,15.92
2023-01-26T10:04:11.283Z,16.00
2023-01-26T10:09:22.515Z,16.04
2023-01-26T10:14:48.849Z,15.99
2023-01-26T10:20:03.429Z,16.07
2023-01-26T10:25:17.782Z,16.08
2023-01-26T10:30:21.157Z,16.10
2023-01-26T10:35:25.823Z,16.09
2023-01-26T10:40:27.680Z,16.11
2023-01-26T10:45:32.441Z,16.08
2023-01-26T10:50:34.331Z,16.10
2023-01-26T10:55:37.638Z,15.65
2023-01-26T11:00:41.288Z,15.49
2023-01-26T11:05:48.343Z,15.44
2023-01-26T11:10:53.532Z,15.37
2023-01-26T11:16:17.233Z,15.35
2023-01-26T11:21:40.533Z,15.34
2023-01-26T11:27:15.335Z,15.30
2023-01-26T11:32:45.589Z,15.29
2023-01-26T11:38:00.029Z,15.20
2023-01-26T11:43:20.311Z,15.25
2023-01-26T11:48:52.029Z,15.49
2023-01-26T11:54:15.312Z,15.83
2023-01-26T11:59:38.885Z,15.85
2023-01-26T12:04:46.054Z,15.92
2023-01-26T12:09:50.197Z,15.92
2023-01-26T12:15:04.321Z,16.08
2023-01-26T12:20:38.764Z,16.11
2023-01-26T12:25:49.655Z,16.21
2023-01-26T12:31:18.836Z,16.25
2023-01-26T12:36:36.276Z,16.01
2023-01-26T12:41:54.941Z,15.97
2023-01-26T12:47:07.939Z,15.99
2023-01-26T12:52:21.765Z,16.01
2023-01-26T12:57:30.920Z,16.21
2023-01-26T13:02:35.721Z,16.35
2023-01-26T13:07:39.663Z,16.33
2023-01-26T13:12:51.120Z,16.33
2023-01-26T13:17:54.476Z,16.39
2023-01-26T13:22:56.989Z,16.32
2023-01-26T13:28:01.869Z,16.21
2023-01-26T13:33:15.156Z,16.13
2023-01-26T13:38:33.441Z,16.16
2023-01-26T13:43:50.796Z,16.15
2023-01-26T13:48:55.239Z,16.13
2023-01-26T13:54:18.480Z,16.08
2023-01-26T13:59:22.099Z,16.16
2023-01-26T14:04:32.305Z,16.17
2023-01-26T14:09:45.841Z,16.15
2023-01-26T14:14:50.509Z,16.16
2023-01-26T14:19:52.391Z,16.10
2023-01-26T14:24:54.903Z,16.17
2023-01-26T14:29:57.389Z,16.16
2023-01-26T14:35:02.177Z,16.18
2023-01-26T14:40:24.853Z,16.12
2023-01-26T14:45:31.656Z,16.13
2023-01-26T14:50:35.088Z,16.08
2023-01-26T14:55:37.171Z,16.04
2023-01-26T15:00:39.578Z,16.02
2023-01-26T15:05:45.081Z,16.09
2023-01-26T15:11:20.702Z,16.08
2023-01-26T15:16:24.727Z,16.11
2023-01-26T15:21:40.416Z,15.80
2023-01-26T15:26:43.129Z,15.57
2023-01-26T15:31:51.214Z,15.55
2023-01-26T15:36:53.082Z,15.76
2023-01-26T15:42:16.231Z,15.65
2023-01-26T15:47:18.730Z,15.66
2023-01-26T15:52:26.032Z,15.68
2023-01-26T15:57:28.275Z,15.61
2023-01-26T16:02:30.698Z,15.73
2023-01-26T16:07:32.938Z,16.07
2023-01-26T16:12:35.048Z,16.17
2023-01-26T16:17:36.959Z,16.03
2023-01-26T16:22:38.975Z,15.99
2023-01-26T16:27:40.959Z,16.03
2023-01-26T16:32:44.754Z,16.19
2023-01-26T16:37:47.150Z,16.07
2023-01-26T16:42:51.623Z,15.84
2023-01-26T16:47:56.034Z,15.55
2023-01-26T16:52:58.328Z,15.89
2023-01-26T16:58:00.198Z,16.07
2023-01-26T17:03:02.348Z,16.14
2023-01-26T17:08:04.753Z,16.30
2023-01-26T17:13:07.649Z,16.34
2023-01-26T17:18:11.954Z,16.30
2023-01-26T17:23:14.219Z,16.28
2023-01-26T17:28:16.711Z,16.37
2023-01-26T17:33:18.723Z,16.39
2023-01-26T17:38:20.478Z,16.42
2023-01-26T17:43:22.395Z,16.30
2023-01-26T17:48:24.307Z,16.35
2023-01-26T17:53:28.125Z,16.27
2023-01-26T17:58:30.446Z,16.34
2023-01-26T18:03:32.487Z,16.30
2023-01-26T18:08:34.977Z,16.34
2023-01-26T18:13:37.232Z,16.29
2023-01-26T18:18:39.115Z,16.34
2023-01-26T18:23:44.671Z,16.36
2023-01-26T18:28:47.833Z,16.39
2023-01-26T18:33:49.949Z,16.35
2023-01-26T18:38:54.404Z,15.68
2023-01-26T18:43:58.740Z,15.73
2023-01-26T18:49:01.229Z,15.84
2023-01-26T18:54:04.673Z,15.93
2023-01-26T18:59:09.771Z,15.94
2023-01-26T19:04:13.104Z,15.92
2023-01-26T19:09:15.097Z,15.98
2023-01-26T19:14:17.467Z,16.07
2023-01-26T19:19:19.339Z,15.97
2023-01-26T19:24:21.514Z,16.18
2023-01-26T19:29:23.420Z,16.38
2023-01-26T19:34:25.643Z,16.49
2023-01-26T19:39:27.549Z,16.08
2023-01-26T19:44:30.073Z,16.03
2023-01-26T19:49:33.096Z,16.15
2023-01-26T19:54:35.231Z,16.31
2023-01-26T19:59:37.095Z,16.40
2023-01-26T20:04:39.047Z,16.27
2023-01-26T20:09:41.049Z,16.45
2023-01-26T20:14:42.945Z,16.49
2023-01-26T20:19:45.724Z,16.43
2023-01-26T20:24:47.977Z,16.42
2023-01-26T20:29:49.888Z,16.41
2023-01-26T20:34:52.658Z,16.28
2023-01-26T20:39:54.538Z,16.32
2023-01-26T20:44:59.227Z,16.38
2023-01-26T20:50:02.184Z,16.39
2023-01-26T20:55:07.297Z,16.52
2023-01-26T21:00:10.504Z,16.46
2023-01-26T21:05:12.531Z,16.31
2023-01-26T21:10:14.641Z,16.15
2023-01-26T21:15:16.937Z,16.46
2023-01-26T21:20:19.603Z,16.35
2023-01-26T21:25:21.665Z,16.38
2023-01-26T21:30:23.672Z,16.25
2023-01-26T21:35:25.747Z,16.23
2023-01-26T21:40:27.553Z,16.17
2023-01-26T21:45:47.666Z,16.31
2023-01-26T21:51:08.511Z,16.26
2023-01-26T21:56:10.635Z,16.40
2023-01-26T22:01:12.719Z,16.34
2023-01-26T22:06:14.877Z,15.78
2023-01-26T22:11:17.350Z,15.91
2023-01-26T22:16:19.490Z,16.00
2023-01-26T22:21:22.275Z,16.07
2023-01-26T22:26:24.270Z,16.03
2023-01-26T22:31:28.981Z,16.05
2023-01-26T22:36:31.081Z,16.13
2023-01-26T22:41:34.609Z,16.24
2023-01-26T22:46:37.214Z,16.15
2023-01-26T22:51:39.031Z,16.09
2023-01-26T22:56:40.956Z,16.08
2023-01-26T23:01:43.546Z,16.04
2023-01-26T23:06:45.487Z,16.09
2023-01-26T23:11:47.350Z,16.08
2023-01-26T23:16:49.367Z,16.08
2023-01-26T23:21:51.742Z,16.08
2023-01-26T23:26:53.721Z,16.11
2023-01-26T23:31:55.748Z,16.08
2023-01-26T23:36:57.745Z,16.08
2023-01-26T23:41:59.630Z,16.08
2023-01-26T23:47:01.687Z,16.04
2023-01-26T23:52:03.750Z,16.10
2023-01-26T23:57:05.681Z,16.09
